Time;durP1;ratioP1;P1;durP2;ratioP2;P2;SDS_P1;SDS_P2;PMS_P1;PMS_P2;Temp;Humidity;BMP_temperature;BMP_pressure;BME280_temperature;BME280_humidity;BME280_pressure;Samples;Min_cycle;Max_cycle;Signal;HPM_P1;HPM_P2
2021/08/15 00:01:54;;;;;;;9.05;2.47;;;;;;;14.77;93.05;100586.28;5005158;28;20038;-86
2021/08/15 00:04:19;;;;;;;9.05;2.38;;;;;;;14.79;93.26;100585.06;4986019;28;20385;-85
2021/08/15 00:06:45;;;;;;;10.52;2.47;;;;;;;14.71;93.07;100588.78;5002164;28;20044;-86
2021/08/15 00:09:11;;;;;;;17.58;2.97;;;;;;;14.69;93.00;100584.63;4988234;28;20069;-85
2021/08/15 00:11:37;;;;;;;9.30;2.47;;;;;;;14.75;93.10;100602.72;5001383;28;20017;-85
2021/08/15 00:14:02;;;;;;;10.65;2.42;;;;;;;14.72;93.22;100603.97;5018787;28;20032;-84
2021/08/15 00:16:28;;;;;;;7.93;2.25;;;;;;;14.74;93.29;100595.66;5003924;28;20053;-85
2021/08/15 00:18:54;;;;;;;8.10;2.42;;;;;;;14.60;92.97;100570.44;5002154;28;20068;-85
2021/08/15 00:21:19;;;;;;;13.60;2.90;;;;;;;14.65;93.11;100576.06;4999389;28;20033;-85
2021/08/15 00:23:45;;;;;;;8.10;2.20;;;;;;;14.69;93.20;100579.22;4991199;28;20029;-84
2021/08/15 00:26:11;;;;;;;9.48;2.78;;;;;;;14.73;93.04;100575.84;5004024;28;20030;-85
2021/08/15 00:28:36;;;;;;;16.95;2.92;;;;;;;14.58;92.87;100550.03;5006842;28;20844;-85
2021/08/15 00:31:03;;;;;;;13.60;2.90;;;;;;;14.72;93.14;100578.78;5004447;28;20034;-86
2021/08/15 00:33:30;;;;;;;13.15;4.10;;;;;;;14.67;92.95;100578.56;4993161;28;20484;-86
2021/08/15 00:35:56;;;;;;;12.38;3.03;;;;;;;14.67;92.90;100578.56;4988169;28;20052;-86
2021/08/15 00:38:21;;;;;;;10.98;2.40;;;;;;;14.68;92.61;100574.81;5001831;28;20397;-85
2021/08/15 00:40:47;;;;;;;9.38;2.35;;;;;;;14.65;92.92;100561.72;4988002;28;20072;-85
2021/08/15 00:43:13;;;;;;;11.07;2.42;;;;;;;14.64;93.09;100546.53;4987644;28;20065;-86
2021/08/15 00:45:38;;;;;;;12.25;3.35;;;;;;;14.60;93.22;100542.56;4988785;28;20073;-84
2021/08/15 00:48:11;;;;;;;8.38;2.30;;;;;;;14.51;93.51;100556.25;5004499;28;20018;-84
2021/08/15 00:50:38;;;;;;;8.48;2.10;;;;;;;14.50;93.31;100569.97;4991365;28;20125;-86
2021/08/15 00:53:04;;;;;;;8.95;2.25;;;;;;;14.49;93.33;100568.31;4987562;28;20034;-86
2021/08/15 00:55:30;;;;;;;9.35;2.42;;;;;;;14.46;93.39;100572.28;4978469;28;20501;-85
2021/08/15 00:57:57;;;;;;;9.30;2.08;;;;;;;14.37;93.41;100551.88;4974262;28;20057;-86
2021/08/15 01:00:22;;;;;;;15.95;2.55;;;;;;;14.39;93.45;100557.91;4985410;28;20085;-85
2021/08/15 01:02:48;;;;;;;8.70;2.42;;;;;;;14.36;93.33;100566.44;4975580;28;20080;-85
2021/08/15 01:05:15;;;;;;;7.93;2.65;;;;;;;14.36;93.51;100566.44;4989157;28;20018;-85
2021/08/15 01:07:42;;;;;;;10.05;2.90;;;;;;;14.35;93.68;100561.25;4989398;28;20054;-86
2021/08/15 01:10:11;;;;;;;14.55;2.90;;;;;;;14.34;93.77;100560.38;5001485;28;20120;-85
2021/08/15 01:12:37;;;;;;;10.93;2.10;;;;;;;14.32;93.79;100556.25;4994436;28;20157;-86
2021/08/15 01:15:03;;;;;;;8.25;2.28;;;;;;;14.27;93.81;100556.84;4982604;28;20121;-85
2021/08/15 01:17:29;;;;;;;9.35;2.10;;;;;;;14.28;93.97;100555.81;5003542;28;20561;-85
2021/08/15 01:19:58;;;;;;;11.23;2.40;;;;;;;14.25;93.85;100550.81;5001259;28;20080;-86
2021/08/15 01:22:24;;;;;;;12.50;2.50;;;;;;;14.22;93.98;100543.09;4983637;28;20030;-85
2021/08/15 01:24:58;;;;;;;6.57;2.33;;;;;;;14.28;93.75;100544.97;4974883;28;20034;-86
2021/08/15 01:27:25;;;;;;;6.28;1.98;;;;;;;14.23;93.83;100531.25;4990184;28;20566;-86
2021/08/15 01:29:51;;;;;;;15.77;2.92;;;;;;;14.24;93.79;100536.47;4984601;28;20425;-86
2021/08/15 01:32:18;;;;;;;13.55;2.67;;;;;;;14.18;93.66;100521.03;4983547;28;20022;-85
2021/08/15 01:34:45;;;;;;;10.52;3.05;;;;;;;14.28;94.27;100537.69;5003663;28;20102;-85
2021/08/15 01:37:11;;;;;;;10.90;3.00;;;;;;;14.26;93.70;100525.41;4988354;28;20144;-85
2021/08/15 01:39:41;;;;;;;6.63;2.13;;;;;;;14.26;93.72;100530.81;5003605;28;20107;-85
2021/08/15 01:42:07;;;;;;;11.38;2.25;;;;;;;14.20;93.98;100521.66;4988647;28;20033;-85
2021/08/15 01:44:32;;;;;;;8.70;2.08;;;;;;;14.22;93.47;100527.72;4996675;28;20038;-86
2021/08/15 01:46:58;;;;;;;6.60;2.40;;;;;;;14.24;93.82;100530.22;5004919;28;20022;-84
2021/08/15 01:49:24;;;;;;;7.63;2.22;;;;;;;14.23;93.79;100520.44;5000914;28;20029;-85
2021/08/15 01:51:50;;;;;;;14.98;2.88;;;;;;;14.27;93.77;100521.69;5007295;28;20084;-87
2021/08/15 01:54:15;;;;;;;9.05;2.40;;;;;;;14.21;93.63;100506.28;5005174;28;20083;-85
2021/08/15 01:56:41;;;;;;;6.32;1.77;;;;;;;14.14;93.69;100500.88;5006033;28;20025;-86
2021/08/15 01:59:07;;;;;;;10.02;2.22;;;;;;;14.24;93.66;100517.53;5004935;28;20025;-85
2021/08/15 02:01:32;;;;;;;12.25;2.00;;;;;;;14.07;93.32;100490.03;4987433;28;20040;-85
2021/08/15 02:03:58;;;;;;;7.13;2.13;;;;;;;14.25;93.66;100507.53;4974441;28;20033;-85
2021/08/15 02:06:24;;;;;;;7.03;2.22;;;;;;;14.24;93.69;100508.59;4980301;28;20033;-85
2021/08/15 02:08:51;;;;;;;6.35;1.83;;;;;;;14.27;93.79;100505.47;5005690;28;20480;-85
2021/08/15 02:11:18;;;;;;;7.63;1.90;;;;;;;14.34;93.65;100522.50;5004345;28;20101;-85
2021/08/15 02:13:44;;;;;;;12.43;2.08;;;;;;;14.25;93.77;100507.53;4986851;28;20034;-85
2021/08/15 02:16:10;;;;;;;11.95;2.92;;;;;;;14.21;93.85;100498.16;4991961;28;20030;-87
2021/08/15 02:18:36;;;;;;;9.15;2.20;;;;;;;14.08;93.93;100486.31;5003677;28;20661;-85
2021/08/15 02:21:01;;;;;;;9.43;2.55;;;;;;;14.03;94.17;100475.28;4983901;28;20022;-85
2021/08/15 02:23:27;;;;;;;7.75;2.30;;;;;;;14.18;94.08;100506.69;4990189;28;20026;-86
2021/08/15 02:25:53;;;;;;;7.47;2.15;;;;;;;14.17;94.33;100499.63;5004080;28;20022;-84
2021/08/15 02:28:19;;;;;;;10.65;2.22;;;;;;;14.16;94.65;100495.28;4990896;28;20037;-84
2021/08/15 02:30:44;;;;;;;9.98;2.30;;;;;;;14.19;94.46;100492.16;4972277;28;20589;-84
2021/08/15 02:33:10;;;;;;;10.38;2.13;;;;;;;14.15;94.70;100485.47;4990707;28;20136;-86
2021/08/15 02:35:36;;;;;;;12.05;2.30;;;;;;;14.15;94.67;100489.00;5001063;28;20034;-85
2021/08/15 02:38:02;;;;;;;9.77;2.33;;;;;;;13.99;94.76;100467.78;4985163;28;20065;-84
2021/08/15 02:40:27;;;;;;;9.57;2.28;;;;;;;14.14;94.46;100489.22;4991425;28;20025;-86
2021/08/15 02:42:54;;;;;;;12.32;2.63;;;;;;;14.12;94.61;100484.00;5005400;28;20038;-84
2021/08/15 02:45:21;;;;;;;11.38;2.95;;;;;;;14.20;94.43;100496.50;4992079;28;20092;-86
2021/08/15 02:47:47;;;;;;;10.20;2.13;;;;;;;14.20;94.12;100496.50;4974407;28;20038;-85
2021/08/15 02:50:13;;;;;;;10.00;2.17;;;;;;;14.24;94.47;100495.91;5002006;28;20096;-86
2021/08/15 02:52:39;;;;;;;12.85;3.60;;;;;;;14.08;94.37;100464.69;5000308;28;20040;-85
2021/08/15 02:55:06;;;;;;;8.52;2.20;;;;;;;14.18;94.41;100482.34;5007289;28;20029;-85
2021/08/15 02:57:31;;;;;;;13.65;2.78;;;;;;;14.12;94.29;100461.56;4987979;28;20469;-85
2021/08/15 02:59:57;;;;;;;12.40;2.35;;;;;;;14.15;94.19;100464.66;4991252;28;20026;-84
2021/08/15 03:02:23;;;;;;;10.30;2.75;;;;;;;14.26;94.11;100479.44;4973979;28;20038;-86
2021/08/15 03:04:49;;;;;;;13.15;2.33;;;;;;;14.23;94.19;100477.16;4990575;28;20057;-85
2021/08/15 03:07:16;;;;;;;9.77;2.80;;;;;;;14.20;94.18;100473.00;4990722;28;20358;-86
2021/08/15 03:09:43;;;;;;;15.07;3.55;;;;;;;14.26;93.96;100480.31;4989318;28;20034;-85
2021/08/15 03:12:09;;;;;;;16.67;2.67;;;;;;;14.16;94.01;100460.94;5005506;28;20025;-85
2021/08/15 03:14:35;;;;;;;11.18;2.85;;;;;;;14.17;93.82;100464.47;5006908;28;20040;-86
2021/08/15 03:17:00;;;;;;;11.68;2.95;;;;;;;14.22;94.06;100470.09;4986240;28;20416;-85
2021/08/15 03:19:26;;;;;;;9.82;3.17;;;;;;;14.17;94.04;100464.47;5003086;28;20041;-86
2021/08/15 03:21:52;;;;;;;14.82;3.22;;;;;;;14.19;94.05;100462.41;5001129;28;20030;-85
2021/08/15 03:24:18;;;;;;;18.15;2.70;;;;;;;14.24;93.89;100465.31;4986384;28;20710;-86
2021/08/15 03:26:45;;;;;;;10.65;2.58;;;;;;;14.08;94.04;100447.63;4988538;28;20061;-86
2021/08/15 03:29:11;;;;;;;15.45;2.88;;;;;;;14.23;93.70;100456.34;4985430;28;20038;-86
2021/08/15 03:31:37;;;;;;;12.27;2.92;;;;;;;14.18;93.80;100444.50;4987003;28;20096;-83
2021/08/15 03:34:03;;;;;;;11.35;2.80;;;;;;;14.25;93.68;100448.03;4967763;28;20030;-86
2021/08/15 03:36:28;;;;;;;11.95;2.72;;;;;;;14.22;93.83;100438.47;4990431;28;20447;-85
2021/08/15 03:38:54;;;;;;;14.00;2.55;;;;;;;14.24;93.92;100449.09;5000447;28;20467;-85
2021/08/15 03:41:20;;;;;;;12.77;2.83;;;;;;;14.22;93.92;100440.34;4971957;28;20030;-86
2021/08/15 03:43:45;;;;;;;15.77;3.10;;;;;;;14.20;93.78;100435.13;4987991;28;20033;-85
2021/08/15 03:46:11;;;;;;;11.57;2.67;;;;;;;14.21;94.15;100438.66;4979459;28;20026;-85
2021/08/15 03:48:37;;;;;;;17.95;3.45;;;;;;;14.26;93.91;100436.19;4977660;28;20592;-85
2021/08/15 03:51:02;;;;;;;13.60;2.63;;;;;;;14.27;94.00;100440.56;5000344;28;20045;-85
2021/08/15 03:53:28;;;;;;;11.32;3.05;;;;;;;14.22;93.96;100432.25;4989008;28;20034;-88
2021/08/15 03:55:53;;;;;;;14.18;2.28;;;;;;;14.21;93.94;100419.75;4995990;28;20030;-87
2021/08/15 03:58:19;;;;;;;10.32;3.42;;;;;;;14.18;93.93;100410.16;4964064;28;20477;-86
2021/08/15 04:00:45;;;;;;;11.02;2.83;;;;;;;14.20;93.93;100412.69;4979748;28;20539;-86
2021/08/15 04:03:11;;;;;;;11.00;2.40;;;;;;;14.27;93.85;100408.94;4979770;28;20026;-86
2021/08/15 04:05:37;;;;;;;11.77;2.13;;;;;;;14.27;93.58;100413.53;4996767;28;20018;-86
2021/08/15 04:08:05;;;;;;;7.20;2.47;;;;;;;14.16;93.59;100395.22;4996897;28;20034;-86
2021/08/15 04:10:31;;;;;;;13.07;2.50;;;;;;;14.26;93.73;100412.69;4980340;28;20178;-85
2021/08/15 04:12:57;;;;;;;19.85;3.45;;;;;;;14.26;93.62;100406.44;5005176;28;20022;-87
2021/08/15 04:15:23;;;;;;;11.60;2.97;;;;;;;14.30;93.54;100410.41;4997093;28;20034;-86
2021/08/15 04:17:48;;;;;;;9.43;2.25;;;;;;;14.25;93.42;100407.47;5008972;28;20053;-86
2021/08/15 04:20:14;;;;;;;12.63;2.20;;;;;;;14.22;93.49;100399.78;4992389;28;20042;-84
2021/08/15 04:22:40;;;;;;;17.60;3.00;;;;;;;14.27;93.62;100402.69;5001608;28;20022;-84
2021/08/15 04:25:06;;;;;;;15.63;3.67;;;;;;;14.26;93.52;100406.44;5003720;28;20026;-84
2021/08/15 04:27:32;;;;;;;14.18;3.15;;;;;;;14.34;93.47;100419.72;4971789;28;20026;-86
2021/08/15 04:29:58;;;;;;;14.38;2.53;;;;;;;14.31;93.38;100412.03;4987971;28;20047;-85
2021/08/15 04:32:23;;;;;;;7.90;2.13;;;;;;;14.34;93.58;100414.31;4982536;28;20026;-84
2021/08/15 04:34:49;;;;;;;7.22;1.83;;;;;;;14.36;93.41;100417.66;4998805;28;20481;-86
2021/08/15 04:37:17;;;;;;;10.80;2.22;;;;;;;14.35;93.42;100421.41;4996739;28;20034;-84
2021/08/15 04:39:44;;;;;;;5.97;1.98;;;;;;;14.31;93.29;100414.75;5004143;28;20108;-85
2021/08/15 04:42:11;;;;;;;13.40;2.40;;;;;;;14.20;93.53;100399.16;5001314;28;20029;-85
2021/08/15 04:44:36;;;;;;;9.93;1.92;;;;;;;14.26;93.53;100412.69;4987370;28;20030;-84
2021/08/15 04:47:02;;;;;;;13.40;2.42;;;;;;;14.33;93.62;100428.91;5006856;28;20030;-85
2021/08/15 04:49:28;;;;;;;13.13;1.95;;;;;;;14.26;93.54;100412.69;4969450;28;20030;-85
2021/08/15 04:51:55;;;;;;;14.38;4.88;;;;;;;14.33;93.84;100433.50;4985769;28;20161;-85
2021/08/15 04:54:26;;;;;;;10.75;2.38;;;;;;;14.22;93.98;100413.31;5001189;28;20045;-85
2021/08/15 04:56:53;;;;;;;6.15;1.75;;;;;;;14.25;93.84;100412.88;4987873;28;20064;-86
2021/08/15 04:59:19;;;;;;;7.15;2.08;;;;;;;14.22;93.96;100405.19;5001919;28;20080;-86
2021/08/15 05:01:45;;;;;;;7.13;2.38;;;;;;;14.20;93.85;100418.09;5002305;28;20030;-85
2021/08/15 05:04:10;;;;;;;9.25;1.98;;;;;;;14.25;94.19;100427.25;4990036;28;20026;-84
2021/08/15 05:06:36;;;;;;;15.73;2.42;;;;;;;14.18;94.45;100423.69;5000747;28;20761;-86
2021/08/15 05:09:02;;;;;;;14.57;2.08;;;;;;;14.25;94.28;100427.25;4987465;28;20121;-86
2021/08/15 05:11:28;;;;;;;6.45;2.20;;;;;;;14.19;94.61;100427.25;4987417;28;20026;-86
2021/08/15 05:13:53;;;;;;;10.85;2.22;;;;;;;14.17;94.75;100430.16;4972052;28;20403;-85
2021/08/15 05:16:19;;;;;;;7.45;2.20;;;;;;;14.16;94.79;100427.69;4985320;28;20472;-85
2021/08/15 05:18:44;;;;;;;7.45;1.98;;;;;;;13.98;94.86;100407.47;5001444;28;20037;-85
2021/08/15 05:21:10;;;;;;;11.63;2.20;;;;;;;14.07;94.85;100437.84;5005632;28;20025;-86
2021/08/15 05:23:36;;;;;;;8.82;2.50;;;;;;;14.12;95.00;100439.94;4980648;28;20073;-85
2021/08/15 05:26:02;;;;;;;7.88;2.35;;;;;;;14.15;95.07;100448.44;5005895;28;20022;-85
2021/08/15 05:28:28;;;;;;;11.07;3.00;;;;;;;14.06;94.98;100437.00;4993760;28;20095;-84
2021/08/15 05:30:53;;;;;;;10.23;2.42;;;;;;;14.03;95.24;100434.72;5008112;28;20484;-85
2021/08/15 05:33:19;;;;;;;12.40;2.30;;;;;;;14.07;95.38;100446.78;4991225;28;20045;-84
2021/08/15 05:35:45;;;;;;;11.35;1.85;;;;;;;14.05;95.34;100445.31;5006405;28;20029;-84
2021/08/15 05:38:10;;;;;;;8.98;2.13;;;;;;;14.07;95.36;100456.75;4995701;28;20026;-86
2021/08/15 05:40:36;;;;;;;7.88;2.17;;;;;;;13.88;95.57;100422.44;4981845;28;20429;-86
2021/08/15 05:43:02;;;;;;;5.65;2.22;;;;;;;14.01;95.54;100458.41;4982152;28;20037;-88
2021/08/15 05:45:28;;;;;;;6.00;2.25;;;;;;;14.00;95.93;100459.47;5005471;28;20022;-86
2021/08/15 05:47:54;;;;;;;10.77;2.10;;;;;;;14.00;95.96;100464.88;5001399;28;20117;-88
2021/08/15 05:50:20;;;;;;;7.75;2.28;;;;;;;13.95;96.07;100459.25;4998383;28;20120;-85
2021/08/15 05:52:45;;;;;;;9.20;2.65;;;;;;;13.95;96.23;100461.94;4996637;28;20049;-86
2021/08/15 05:55:11;;;;;;;8.30;2.55;;;;;;;13.97;96.22;100469.84;4997961;28;20026;-86
2021/08/15 05:57:37;;;;;;;6.88;1.95;;;;;;;13.97;96.30;100476.09;4998628;28;20030;-86
2021/08/15 06:00:05;;;;;;;11.75;2.10;;;;;;;13.98;96.01;100479.63;4966397;28;20080;-87
2021/08/15 06:02:30;;;;;;;9.30;3.15;;;;;;;14.00;96.29;100474.88;4998292;28;20436;-86
2021/08/15 06:04:56;;;;;;;10.07;2.30;;;;;;;13.95;96.18;100474.63;4999072;28;20032;-85
2021/08/15 06:07:21;;;;;;;11.93;2.05;;;;;;;13.92;96.25;100473.19;5002051;28;20072;-87
2021/08/15 06:09:47;;;;;;;4.28;2.00;;;;;;;13.90;96.42;100472.53;4985448;28;20026;-84
2021/08/15 06:12:13;;;;;;;5.05;1.42;;;;;;;13.97;96.68;100486.91;4998355;28;20052;-85
2021/08/15 06:14:38;;;;;;;8.43;2.10;;;;;;;13.94;96.62;100478.38;5008990;28;20026;-86
2021/08/15 06:17:04;;;;;;;7.53;2.00;;;;;;;13.93;96.84;100482.13;4991766;28;20022;-86
2021/08/15 06:19:31;;;;;;;11.65;2.45;;;;;;;13.95;96.53;100488.97;4993732;28;20738;-85
2021/08/15 06:21:56;;;;;;;8.80;2.25;;;;;;;13.97;96.95;100496.88;5009026;28;20018;-86
2021/08/15 06:24:22;;;;;;;8.80;2.08;;;;;;;13.81;96.86;100477.31;5015527;28;20036;-85
2021/08/15 06:26:47;;;;;;;10.07;2.45;;;;;;;13.93;96.97;100493.75;5018841;28;20026;-86
2021/08/15 06:29:13;;;;;;;8.93;2.10;;;;;;;13.97;96.78;100495.03;5018499;28;20025;-87
2021/08/15 06:31:39;;;;;;;11.45;2.13;;;;;;;13.95;96.89;100498.97;5004386;28;20029;-87
2021/08/15 06:34:04;;;;;;;8.95;2.70;;;;;;;13.99;97.24;100494.81;5019057;28;20409;-86
2021/08/15 06:36:30;;;;;;;9.00;2.35;;;;;;;13.93;96.87;100493.75;4991339;28;20044;-86
2021/08/15 06:38:55;;;;;;;7.00;2.17;;;;;;;13.99;97.03;100505.63;5004009;28;20053;-86
2021/08/15 06:41:21;;;;;;;6.72;2.15;;;;;;;14.04;96.97;100505.84;4990341;28;20106;-85
2021/08/15 06:43:47;;;;;;;12.57;2.50;;;;;;;14.08;96.80;100505.22;4991016;28;20053;-85
2021/08/15 06:46:14;;;;;;;9.60;2.60;;;;;;;14.08;96.77;100502.53;4992325;28;20026;-84
2021/08/15 06:48:40;;;;;;;6.68;2.08;;;;;;;14.11;96.74;100505.88;4988715;28;20052;-86
2021/08/15 06:51:06;;;;;;;7.60;2.00;;;;;;;14.16;96.67;100514.19;5002807;28;20074;-85
2021/08/15 06:53:32;;;;;;;7.80;2.05;;;;;;;14.10;96.85;100501.47;4988836;28;20228;-86
2021/08/15 06:55:59;;;;;;;10.13;2.55;;;;;;;14.12;96.72;100502.13;4988097;28;20064;-86
2021/08/15 06:58:26;;;;;;;7.47;2.25;;;;;;;14.20;96.86;100520.84;4987486;28;20026;-87
2021/08/15 07:00:52;;;;;;;8.00;2.28;;;;;;;14.21;96.67;100528.75;5010046;28;20505;-86
2021/08/15 07:03:17;;;;;;;4.18;1.70;;;;;;;14.22;97.02;100525.00;4982351;28;20109;-84
2021/08/15 07:05:43;;;;;;;6.10;2.08;;;;;;;14.21;97.14;100520.66;4995782;28;20148;-85
2021/08/15 07:08:09;;;;;;;8.50;1.80;;;;;;;14.23;96.95;100523.97;4988282;28;20077;-85
2021/08/15 07:10:34;;;;;;;6.25;1.50;;;;;;;14.24;96.86;100522.94;5001063;28;20018;-85
2021/08/15 07:13:04;;;;;;;2.92;1.63;;;;;;;14.31;96.89;100536.47;5009301;28;20061;-86
2021/08/15 07:15:30;;;;;;;5.78;1.55;;;;;;;14.20;96.87;100526.25;4993107;28;20026;-85
2021/08/15 07:17:56;;;;;;;3.13;1.30;;;;;;;14.09;96.90;100503.34;4988031;28;20436;-86
2021/08/15 07:20:22;;;;;;;3.30;1.45;;;;;;;14.29;96.67;100530.44;5000629;28;20040;-85
2021/08/15 07:22:48;;;;;;;2.00;1.20;;;;;;;14.34;96.88;100538.75;4993048;28;20024;-85
2021/08/15 07:25:14;;;;;;;2.28;1.20;;;;;;;14.36;96.76;100535.84;4994671;28;20033;-86
2021/08/15 07:27:39;;;;;;;3.55;1.30;;;;;;;14.22;96.88;100516.91;4991910;28;20017;-85
2021/08/15 07:30:06;;;;;;;3.47;1.20;;;;;;;14.47;96.77;100546.91;5005091;28;20022;-86
2021/08/15 07:32:32;;;;;;;2.08;0.93;;;;;;;14.49;96.51;100547.50;4995278;28;20083;-85
2021/08/15 07:35:00;;;;;;;3.08;1.05;;;;;;;14.57;96.42;100549.22;5002902;28;20026;-86
2021/08/15 07:37:27;;;;;;;2.28;1.00;;;;;;;14.62;96.76;100554.00;4999442;28;20039;-85
2021/08/15 07:39:52;;;;;;;1.45;0.88;;;;;;;14.66;96.44;100549.84;4984508;28;20026;-85
2021/08/15 07:42:20;;;;;;;3.05;0.90;;;;;;;14.67;96.41;100538.81;4988673;28;20896;-85
2021/08/15 07:44:47;;;;;;;3.47;0.80;;;;;;;14.78;96.32;100541.94;4994014;28;20416;-85
2021/08/15 07:47:12;;;;;;;1.80;0.80;;;;;;;14.83;96.26;100536.72;4989037;28;20476;-85
2021/08/15 07:49:39;;;;;;;3.90;0.90;;;;;;;14.85;95.89;100530.06;4995011;28;20029;-85
2021/08/15 07:52:05;;;;;;;1.75;0.93;;;;;;;14.94;95.81;100544.22;5003188;28;20038;-85
2021/08/15 07:54:31;;;;;;;3.05;1.20;;;;;;;15.02;95.58;100562.13;4991177;28;20488;-85
2021/08/15 07:56:58;;;;;;;1.48;0.80;;;;;;;15.07;95.71;100575.88;5007826;28;20637;-84
2021/08/15 07:59:25;;;;;;;1.95;0.93;;;;;;;15.01;95.46;100564.00;5003206;28;20069;-85
2021/08/15 08:01:51;;;;;;;2.13;0.90;;;;;;;15.03;95.77;100561.94;4995080;28;20030;-86
2021/08/15 08:04:17;;;;;;;5.15;1.17;;;;;;;15.12;95.68;100560.66;5008106;28;20021;-84
2021/08/15 08:06:43;;;;;;;4.55;1.13;;;;;;;15.20;95.62;100556.06;5009077;28;20080;-85
2021/08/15 08:09:09;;;;;;;3.72;1.10;;;;;;;15.36;95.29;100552.91;4992356;28;20033;-85
2021/08/15 08:11:35;;;;;;;4.53;1.23;;;;;;;15.46;95.04;100553.28;5003384;28;20033;-84
2021/08/15 08:14:00;;;;;;;4.88;1.73;;;;;;;15.61;94.49;100561.16;5005564;28;20099;-85
2021/08/15 08:16:26;;;;;;;3.70;1.60;;;;;;;15.67;94.06;100571.16;4965833;28;20552;-83
2021/08/15 08:18:53;;;;;;;5.13;1.90;;;;;;;15.59;93.60;100547.00;5004649;28;20389;-85
2021/08/15 08:21:19;;;;;;;6.75;1.88;;;;;;;15.71;93.51;100561.56;4990074;28;20712;-85
2021/08/15 08:23:44;;;;;;;4.97;1.80;;;;;;;15.77;93.43;100571.56;4988707;28;20037;-85
2021/08/15 08:26:10;;;;;;;6.00;1.80;;;;;;;15.80;92.63;100575.72;5003889;28;20017;-85
2021/08/15 08:28:39;;;;;;;4.90;1.83;;;;;;;15.88;92.12;100583.63;5000208;28;20029;-85
2021/08/15 08:31:04;;;;;;;9.23;2.08;;;;;;;15.90;92.19;100589.63;5011553;28;20034;-85
2021/08/15 08:33:30;;;;;;;13.77;2.88;;;;;;;15.87;92.06;100589.25;4993953;28;20036;-84
2021/08/15 08:35:57;;;;;;;8.02;2.38;;;;;;;15.89;91.90;100585.28;4988488;28;20022;-85
2021/08/15 08:38:23;;;;;;;8.85;2.40;;;;;;;15.85;92.07;100577.78;4998238;28;20109;-85
2021/08/15 08:40:49;;;;;;;11.40;2.20;;;;;;;15.93;92.17;100593.78;4989188;28;20117;-85
2021/08/15 08:43:14;;;;;;;9.68;2.42;;;;;;;15.89;92.29;100579.03;5007167;28;20228;-85
2021/08/15 08:45:41;;;;;;;8.93;2.78;;;;;;;16.07;91.79;100602.72;5008184;28;20025;-84
2021/08/15 08:48:08;;;;;;;11.00;2.92;;;;;;;16.04;91.71;100604.00;5005245;28;20030;-86
2021/08/15 08:50:33;;;;;;;9.23;2.75;;;;;;;16.06;90.86;100607.28;4978744;28;20061;-87
2021/08/15 08:52:59;;;;;;;6.22;2.00;;;;;;;16.07;90.87;100613.59;4998590;28;20033;-86
2021/08/15 08:55:25;;;;;;;5.38;2.08;;;;;;;16.11;90.62;100615.63;5000557;28;20034;-84
2021/08/15 08:57:51;;;;;;;6.15;2.08;;;;;;;16.10;90.29;100613.97;4991446;28;20139;-87
2021/08/15 09:00:18;;;;;;;10.25;2.42;;;;;;;16.16;90.34;100614.97;5004998;28;20702;-87
2021/08/15 09:02:44;;;;;;;8.73;2.60;;;;;;;16.08;90.22;100615.22;5004267;28;20026;-86
2021/08/15 09:05:10;;;;;;;8.70;2.65;;;;;;;16.29;90.07;100622.22;4991877;28;20029;-85
2021/08/15 09:07:38;;;;;;;10.57;2.63;;;;;;;16.33;90.37;100631.63;4991344;28;20064;-86
2021/08/15 09:10:07;;;;;;;8.90;2.55;;;;;;;16.38;90.06;100626.34;4985496;28;20018;-86
2021/08/15 09:12:48;;;;;;;5.82;2.25;;;;;;;16.51;89.59;100630.88;5004582;28;20031;-87
2021/08/15 09:15:20;;;;;;;11.18;2.67;;;;;;;16.53;89.07;100624.16;5002605;28;20518;-86
2021/08/15 09:17:47;;;;;;;16.63;2.88;;;;;;;16.52;88.91;100617.09;4998634;28;20385;-86
2021/08/15 09:20:47;;;;;;;7.25;2.80;;;;;;;16.68;88.56;100627.41;5005908;28;20021;-86
2021/08/15 09:23:19;;;;;;;11.63;2.70;;;;;;;16.77;87.96;100640.72;4944484;28;20042;-86
2021/08/15 09:25:44;;;;;;;5.95;2.30;;;;;;;16.64;87.47;100612.59;5003736;28;20026;-87
2021/08/15 09:28:10;;;;;;;13.10;3.42;;;;;;;16.74;87.34;100627.59;5006814;28;20079;-85
2021/08/15 09:30:36;;;;;;;6.70;2.28;;;;;;;16.89;87.82;100625.44;5007433;28;20095;-86
2021/08/15 09:33:10;;;;;;;10.75;2.60;;;;;;;17.04;87.68;100642.25;5001129;28;20109;-85
2021/08/15 09:35:35;;;;;;;6.90;2.30;;;;;;;17.15;87.33;100640.69;5007637;28;20045;-87
2021/08/15 09:38:04;;;;;;;6.68;2.22;;;;;;;17.21;86.64;100650.66;5004836;28;20058;-86
2021/08/15 09:40:43;;;;;;;8.20;2.42;;;;;;;17.19;85.59;100649.22;5006829;28;20029;-86
2021/08/15 09:43:11;;;;;;;8.15;2.70;;;;;;;17.24;84.96;100658.34;5005054;28;20030;-86
2021/08/15 09:45:40;;;;;;;8.60;2.80;;;;;;;17.31;85.37;100661.03;4985615;28;20050;-86
2021/08/15 09:48:24;;;;;;;10.73;2.50;;;;;;;17.52;84.51;100655.19;5007448;28;20032;-87
2021/08/15 09:51:07;;;;;;;7.00;2.33;;;;;;;17.65;83.40;100659.66;5003190;28;20026;-86
2021/08/15 09:53:33;;;;;;;;;;;;;;;17.94;83.46;100658.13;4994194;28;20085;-87
2021/08/15 09:56:00;;;;;;;6.85;2.55;;;;;;;18.23;81.92;100661.09;5007499;28;19996;-86
2021/08/15 09:58:27;;;;;;;7.03;2.28;;;;;;;18.44;81.18;100657.91;5005238;28;20447;-86
2021/08/15 10:00:57;;;;;;;9.85;2.47;;;;;;;18.87;80.67;100662.34;5006667;28;20022;-86
2021/08/15 10:03:23;;;;;;;9.60;2.17;;;;;;;18.96;78.99;100660.09;5001391;28;20428;-86
2021/08/15 10:05:49;;;;;;;6.55;2.25;;;;;;;18.82;78.17;100654.03;4982968;28;20018;-86
2021/08/15 10:08:15;;;;;;;7.78;2.15;;;;;;;18.83;77.42;100673.94;4994087;28;20026;-86
2021/08/15 10:10:41;;;;;;;9.02;2.33;;;;;;;18.78;78.68;100685.50;5003732;28;20037;-86
2021/08/15 10:13:07;;;;;;;8.77;2.13;;;;;;;18.74;78.54;100672.59;5007249;28;20022;-86
2021/08/15 10:15:36;;;;;;;5.55;2.22;;;;;;;18.72;77.43;100691.88;5002602;28;20027;-86
2021/08/15 10:18:04;;;;;;;7.53;1.77;;;;;;;18.58;77.66;100693.13;4984722;28;20030;-86
2021/08/15 10:20:31;;;;;;;4.70;1.95;;;;;;;18.46;77.64;100699.31;5008112;28;20116;-86
2021/08/15 10:23:11;;;;;;;4.85;1.88;;;;;;;18.20;76.54;100703.22;4994522;28;20719;-87
2021/08/15 10:25:43;;;;;;;8.30;1.88;;;;;;;18.21;76.41;100695.91;4990950;28;20084;-86
2021/08/15 10:28:28;;;;;;;7.13;2.05;;;;;;;18.66;75.55;100698.25;5010030;28;20056;-87
2021/08/15 10:30:56;;;;;;;5.60;1.90;;;;;;;19.20;74.38;100692.84;5024024;28;20034;-86
2021/08/15 10:33:23;;;;;;;6.72;1.63;;;;;;;19.82;72.26;100704.19;5006731;28;20114;-85
2021/08/15 10:36:21;;;;;;;5.20;1.75;;;;;;;20.31;71.79;100701.13;4992883;28;20052;-87
2021/08/15 10:38:49;;;;;;;3.78;1.80;;;;;;;20.01;70.44;100701.34;4972043;28;20085;-86
2021/08/15 10:41:50;;;;;;;4.32;1.42;;;;;;;19.58;72.01;100703.31;5013039;28;20049;-86
2021/08/15 10:44:16;;;;;;;2.67;1.40;;;;;;;19.10;71.78;100715.22;5010310;28;20029;-86
2021/08/15 10:47:07;;;;;;;4.38;1.40;;;;;;;18.75;73.26;100718.66;4993514;28;20026;-85
2021/08/15 10:49:50;;;;;;;3.38;1.50;;;;;;;18.60;73.97;100721.78;4990884;28;20154;-86
2021/08/15 10:52:31;;;;;;;4.47;1.60;;;;;;;18.72;73.81;100718.28;4993025;28;20030;-86
2021/08/15 10:55:00;;;;;;;3.60;1.50;;;;;;;18.77;74.42;100724.72;5007340;28;20504;-86
2021/08/15 10:57:58;;;;;;;3.03;1.45;;;;;;;18.65;74.92;100740.13;5003806;28;20064;-86
2021/08/15 11:00:38;;;;;;;2.10;1.40;;;;;;;18.31;75.43;100726.13;4971410;28;20500;-85
2021/08/15 11:03:13;;;;;;;6.10;2.13;;;;;;;17.94;77.04;100737.00;4991155;28;20393;-85
2021/08/15 11:05:39;;;;;;;5.28;2.15;;;;;;;17.74;78.93;100739.88;4995432;28;20029;-87
2021/08/15 11:08:34;;;;;;;3.28;1.90;;;;;;;17.61;79.60;100742.72;4975583;28;20026;-86
2021/08/15 11:11:18;;;;;;;5.47;1.95;;;;;;;17.57;79.98;100745.06;4995263;28;20121;-86
2021/08/15 11:13:43;;;;;;;6.15;1.80;;;;;;;17.62;79.63;100754.41;4993703;28;20048;-86
2021/08/15 11:16:27;;;;;;;2.40;1.52;;;;;;;17.50;78.72;100754.31;5009568;28;20033;-87
2021/08/15 11:19:08;;;;;;;6.18;2.67;;;;;;;17.54;78.64;100755.53;4991813;28;20030;-85
2021/08/15 11:22:12;;;;;;;3.33;1.50;;;;;;;18.45;77.50;100760.28;5007423;28;20145;-86
2021/08/15 11:24:59;;;;;;;3.28;1.67;;;;;;;19.41;74.90;100760.44;5004338;28;20559;-84